sensor_id;sensor_type;location;lat;lon;timestamp;temperature;humidity
4697;DHT22;2362;50.780;0.292;2023-02-15T00:00:20;2.40;99.90
4697;DHT22;2362;50.780;0.292;2023-02-15T00:02:45;2.30;99.90
4697;DHT22;2362;50.780;0.292;2023-02-15T00:05:11;2.30;99.90
4697;DHT22;2362;50.780;0.292;2023-02-15T00:07:37;2.30;99.90
4697;DHT22;2362;50.780;0.292;2023-02-15T00:10:03;2.20;99.90
4697;DHT22;2362;50.780;0.292;2023-02-15T00:12:29;2.30;99.90
4697;DHT22;2362;50.780;0.292;2023-02-15T00:14:55;2.20;99.90
4697;DHT22;2362;50.780;0.292;2023-02-15T00:17:21;2.20;99.90
4697;DHT22;2362;50.780;0.292;2023-02-15T00:19:46;2.20;99.90
4697;DHT22;2362;50.780;0.292;2023-02-15T00:22:12;2.20;99.90
4697;DHT22;2362;50.780;0.292;2023-02-15T00:24:38;2.10;99.90
4697;DHT22;2362;50.780;0.292;2023-02-15T00:27:06;2.20;99.90
4697;DHT22;2362;50.780;0.292;2023-02-15T00:29:32;2.10;99.90
4697;DHT22;2362;50.780;0.292;2023-02-15T00:31:57;2.10;99.90
4697;DHT22;2362;50.780;0.292;2023-02-15T00:34:26;2.20;99.90
4697;DHT22;2362;50.780;0.292;2023-02-15T00:36:52;2.10;99.90
4697;DHT22;2362;50.780;0.292;2023-02-15T00:39:19;2.20;99.90
4697;DHT22;2362;50.780;0.292;2023-02-15T00:41:46;2.20;99.90
4697;DHT22;2362;50.780;0.292;2023-02-15T00:44:12;2.10;99.90
4697;DHT22;2362;50.780;0.292;2023-02-15T00:46:38;2.10;99.90
4697;DHT22;2362;50.780;0.292;2023-02-15T00:49:04;2.10;99.90
4697;DHT22;2362;50.780;0.292;2023-02-15T00:51:30;2.10;99.90
4697;DHT22;2362;50.780;0.292;2023-02-15T00:53:55;2.10;99.90
4697;DHT22;2362;50.780;0.292;2023-02-15T00:56:21;2.00;99.90
4697;DHT22;2362;50.780;0.292;2023-02-15T00:59:12;2.00;99.90
4697;DHT22;2362;50.780;0.292;2023-02-15T01:01:37;2.00;99.90
4697;DHT22;2362;50.780;0.292;2023-02-15T01:04:03;2.00;99.90
4697;DHT22;2362;50.780;0.292;2023-02-15T01:06:29;2.00;99.90
4697;DHT22;2362;50.780;0.292;2023-02-15T01:08:55;2.00;99.90
4697;DHT22;2362;50.780;0.292;2023-02-15T01:11:22;2.00;99.90
4697;DHT22;2362;50.780;0.292;2023-02-15T01:13:56;2.00;99.90
4697;DHT22;2362;50.780;0.292;2023-02-15T01:16:23;1.90;99.90
4697;DHT22;2362;50.780;0.292;2023-02-15T01:18:49;1.90;99.90
4697;DHT22;2362;50.780;0.292;2023-02-15T01:21:20;1.90;99.90
4697;DHT22;2362;50.780;0.292;2023-02-15T01:23:47;1.80;99.90
4697;DHT22;2362;50.780;0.292;2023-02-15T01:26:13;1.80;99.90
4697;DHT22;2362;50.780;0.292;2023-02-15T01:28:38;1.80;99.90
4697;DHT22;2362;50.780;0.292;2023-02-15T01:31:09;1.90;99.90
4697;DHT22;2362;50.780;0.292;2023-02-15T01:33:36;1.90;99.90
4697;DHT22;2362;50.780;0.292;2023-02-15T01:36:02;1.90;99.90
4697;DHT22;2362;50.780;0.292;2023-02-15T01:38:28;1.80;99.90
4697;DHT22;2362;50.780;0.292;2023-02-15T01:40:54;1.90;99.90
4697;DHT22;2362;50.780;0.292;2023-02-15T01:43:42;2.00;99.90
4697;DHT22;2362;50.780;0.292;2023-02-15T01:46:09;2.10;99.90
4697;DHT22;2362;50.780;0.292;2023-02-15T01:48:41;2.20;99.90
4697;DHT22;2362;50.780;0.292;2023-02-15T01:51:09;2.20;99.90
4697;DHT22;2362;50.780;0.292;2023-02-15T01:53:40;2.20;99.90
4697;DHT22;2362;50.780;0.292;2023-02-15T01:56:29;2.20;99.90
4697;DHT22;2362;50.780;0.292;2023-02-15T01:59:02;2.20;99.90
4697;DHT22;2362;50.780;0.292;2023-02-15T02:01:29;2.20;99.90
4697;DHT22;2362;50.780;0.292;2023-02-15T02:06:33;2.20;99.90
4697;DHT22;2362;50.780;0.292;2023-02-15T02:09:00;2.20;99.90
4697;DHT22;2362;50.780;0.292;2023-02-15T02:11:26;2.20;99.90
4697;DHT22;2362;50.780;0.292;2023-02-15T02:13:53;2.30;99.90
4697;DHT22;2362;50.780;0.292;2023-02-15T02:16:42;2.30;99.90
4697;DHT22;2362;50.780;0.292;2023-02-15T02:28:04;2.30;99.90
4697;DHT22;2362;50.780;0.292;2023-02-15T02:36:43;2.40;99.90
4697;DHT22;2362;50.780;0.292;2023-02-15T02:42:09;2.40;99.90
4697;DHT22;2362;50.780;0.292;2023-02-15T02:44:47;2.40;99.90
4697;DHT22;2362;50.780;0.292;2023-02-15T02:47:22;2.40;99.90
4697;DHT22;2362;50.780;0.292;2023-02-15T02:49:56;2.30;99.90
4697;DHT22;2362;50.780;0.292;2023-02-15T02:52:38;2.30;99.90
4697;DHT22;2362;50.780;0.292;2023-02-15T02:55:11;2.30;99.90
4697;DHT22;2362;50.780;0.292;2023-02-15T02:57:46;2.20;99.90
4697;DHT22;2362;50.780;0.292;2023-02-15T03:00:57;2.20;99.90
4697;DHT22;2362;50.780;0.292;2023-02-15T03:03:46;2.20;99.90
4697;DHT22;2362;50.780;0.292;2023-02-15T03:06:22;2.10;99.90
4697;DHT22;2362;50.780;0.292;2023-02-15T03:08:55;2.10;99.90
4697;DHT22;2362;50.780;0.292;2023-02-15T03:11:22;2.10;99.90
4697;DHT22;2362;50.780;0.292;2023-02-15T03:13:48;2.10;99.90
4697;DHT22;2362;50.780;0.292;2023-02-15T03:16:16;2.00;99.90
4697;DHT22;2362;50.780;0.292;2023-02-15T03:19:01;1.90;99.90
4697;DHT22;2362;50.780;0.292;2023-02-15T03:21:36;1.80;99.90
4697;DHT22;2362;50.780;0.292;2023-02-15T03:24:13;1.80;99.90
4697;DHT22;2362;50.780;0.292;2023-02-15T03:26:41;1.70;99.90
4697;DHT22;2362;50.780;0.292;2023-02-15T03:29:09;1.70;99.90
4697;DHT22;2362;50.780;0.292;2023-02-15T03:31:40;1.70;99.90
4697;DHT22;2362;50.780;0.292;2023-02-15T03:34:11;1.60;99.90
4697;DHT22;2362;50.780;0.292;2023-02-15T03:36:55;1.60;99.90
4697;DHT22;2362;50.780;0.292;2023-02-15T03:39:50;1.60;99.90
4697;DHT22;2362;50.780;0.292;2023-02-15T03:42:25;1.60;99.90
4697;DHT22;2362;50.780;0.292;2023-02-15T03:47:32;1.60;99.90
4697;DHT22;2362;50.780;0.292;2023-02-15T03:50:04;1.60;99.90
4697;DHT22;2362;50.780;0.292;2023-02-15T03:52:51;1.60;99.90
4697;DHT22;2362;50.780;0.292;2023-02-15T03:55:18;1.60;99.90
4697;DHT22;2362;50.780;0.292;2023-02-15T03:57:44;1.60;99.90
4697;DHT22;2362;50.780;0.292;2023-02-15T04:00:28;1.50;99.90
4697;DHT22;2362;50.780;0.292;2023-02-15T04:03:39;1.50;99.90
4697;DHT22;2362;50.780;0.292;2023-02-15T04:06:05;1.40;99.90
4697;DHT22;2362;50.780;0.292;2023-02-15T04:08:31;1.40;99.90
4697;DHT22;2362;50.780;0.292;2023-02-15T04:11:15;1.30;99.90
4697;DHT22;2362;50.780;0.292;2023-02-15T04:13:41;1.20;99.90
4697;DHT22;2362;50.780;0.292;2023-02-15T04:16:07;1.10;99.90
4697;DHT22;2362;50.780;0.292;2023-02-15T04:18:50;1.10;99.90
4697;DHT22;2362;50.780;0.292;2023-02-15T04:21:35;1.20;99.90
4697;DHT22;2362;50.780;0.292;2023-02-15T04:24:19;1.20;99.90
4697;DHT22;2362;50.780;0.292;2023-02-15T04:27:05;1.10;99.90
4697;DHT22;2362;50.780;0.292;2023-02-15T04:29:31;1.10;99.90
4697;DHT22;2362;50.780;0.292;2023-02-15T04:31:58;1.20;99.90
4697;DHT22;2362;50.780;0.292;2023-02-15T04:34:24;1.10;99.90
4697;DHT22;2362;50.780;0.292;2023-02-15T04:36:50;1.10;99.90
4697;DHT22;2362;50.780;0.292;2023-02-15T04:39:17;1.10;99.90
4697;DHT22;2362;50.780;0.292;2023-02-15T04:41:45;1.10;99.90
4697;DHT22;2362;50.780;0.292;2023-02-15T04:44:11;1.10;99.90
4697;DHT22;2362;50.780;0.292;2023-02-15T04:46:37;1.00;99.90
4697;DHT22;2362;50.780;0.292;2023-02-15T04:49:03;1.00;99.90
4697;DHT22;2362;50.780;0.292;2023-02-15T04:51:29;1.00;99.90
4697;DHT22;2362;50.780;0.292;2023-02-15T04:53:55;1.00;99.90
4697;DHT22;2362;50.780;0.292;2023-02-15T04:56:22;1.10;99.90
4697;DHT22;2362;50.780;0.292;2023-02-15T04:58:48;1.10;99.90
4697;DHT22;2362;50.780;0.292;2023-02-15T05:01:14;1.10;99.90
4697;DHT22;2362;50.780;0.292;2023-02-15T05:03:40;1.10;99.90
4697;DHT22;2362;50.780;0.292;2023-02-15T05:06:05;1.10;99.90
4697;DHT22;2362;50.780;0.292;2023-02-15T05:08:31;1.20;99.90
4697;DHT22;2362;50.780;0.292;2023-02-15T05:10:57;1.20;99.90
4697;DHT22;2362;50.780;0.292;2023-02-15T05:13:23;1.20;99.90
4697;DHT22;2362;50.780;0.292;2023-02-15T05:15:50;1.20;99.90
4697;DHT22;2362;50.780;0.292;2023-02-15T05:18:17;1.20;99.90
4697;DHT22;2362;50.780;0.292;2023-02-15T05:20:43;1.20;99.90
4697;DHT22;2362;50.780;0.292;2023-02-15T05:23:09;1.20;99.90
4697;DHT22;2362;50.780;0.292;2023-02-15T05:25:35;1.20;99.90
4697;DHT22;2362;50.780;0.292;2023-02-15T05:28:19;1.20;99.90
4697;DHT22;2362;50.780;0.292;2023-02-15T05:33:31;1.20;99.90
4697;DHT22;2362;50.780;0.292;2023-02-15T05:35:57;1.20;99.90
4697;DHT22;2362;50.780;0.292;2023-02-15T05:38:23;1.10;99.90
4697;DHT22;2362;50.780;0.292;2023-02-15T05:40:49;1.10;99.90
4697;DHT22;2362;50.780;0.292;2023-02-15T05:43:15;1.10;99.90
4697;DHT22;2362;50.780;0.292;2023-02-15T05:45:45;1.10;99.90
4697;DHT22;2362;50.780;0.292;2023-02-15T05:48:11;1.10;99.90
4697;DHT22;2362;50.780;0.292;2023-02-15T05:50:36;1.10;99.90
4697;DHT22;2362;50.780;0.292;2023-02-15T05:53:02;1.20;99.90
4697;DHT22;2362;50.780;0.292;2023-02-15T05:55:28;1.20;99.90
4697;DHT22;2362;50.780;0.292;2023-02-15T05:57:53;1.30;99.90
4697;DHT22;2362;50.780;0.292;2023-02-15T06:00:19;1.30;99.90
4697;DHT22;2362;50.780;0.292;2023-02-15T06:02:45;1.30;99.90
4697;DHT22;2362;50.780;0.292;2023-02-15T06:05:10;1.30;99.90
4697;DHT22;2362;50.780;0.292;2023-02-15T06:07:36;1.30;99.90
4697;DHT22;2362;50.780;0.292;2023-02-15T06:10:02;1.30;99.90
4697;DHT22;2362;50.780;0.292;2023-02-15T06:12:28;1.30;99.90
4697;DHT22;2362;50.780;0.292;2023-02-15T06:14:53;1.30;99.90
4697;DHT22;2362;50.780;0.292;2023-02-15T06:17:19;1.40;99.90
4697;DHT22;2362;50.780;0.292;2023-02-15T06:19:46;1.40;99.90
4697;DHT22;2362;50.780;0.292;2023-02-15T06:22:12;1.40;99.90
4697;DHT22;2362;50.780;0.292;2023-02-15T06:24:39;1.30;99.90
4697;DHT22;2362;50.780;0.292;2023-02-15T06:27:05;1.30;99.90
4697;DHT22;2362;50.780;0.292;2023-02-15T06:29:31;1.30;99.90
4697;DHT22;2362;50.780;0.292;2023-02-15T06:31:56;1.30;99.90
4697;DHT22;2362;50.780;0.292;2023-02-15T06:34:22;1.30;99.90
4697;DHT22;2362;50.780;0.292;2023-02-15T06:36:48;1.30;99.90
4697;DHT22;2362;50.780;0.292;2023-02-15T06:39:13;1.30;99.90
4697;DHT22;2362;50.780;0.292;2023-02-15T06:41:39;1.40;99.90
4697;DHT22;2362;50.780;0.292;2023-02-15T06:44:04;1.40;99.90
4697;DHT22;2362;50.780;0.292;2023-02-15T06:46:30;1.40;99.90
4697;DHT22;2362;50.780;0.292;2023-02-15T06:49:21;1.40;99.90
4697;DHT22;2362;50.780;0.292;2023-02-15T06:51:47;1.30;99.90
4697;DHT22;2362;50.780;0.292;2023-02-15T06:54:12;1.30;99.90
4697;DHT22;2362;50.780;0.292;2023-02-15T06:56:38;1.40;99.90
4697;DHT22;2362;50.780;0.292;2023-02-15T06:59:04;1.50;99.90
4697;DHT22;2362;50.780;0.292;2023-02-15T07:01:29;1.50;99.90
4697;DHT22;2362;50.780;0.292;2023-02-15T07:03:55;1.50;99.90
4697;DHT22;2362;50.780;0.292;2023-02-15T07:06:21;1.60;99.90
4697;DHT22;2362;50.780;0.292;2023-02-15T07:08:46;1.60;99.90
4697;DHT22;2362;50.780;0.292;2023-02-15T07:11:12;1.60;99.90
4697;DHT22;2362;50.780;0.292;2023-02-15T07:13:56;1.60;99.90
4697;DHT22;2362;50.780;0.292;2023-02-15T07:16:22;1.60;99.90
4697;DHT22;2362;50.780;0.292;2023-02-15T07:18:48;1.50;99.90
4697;DHT22;2362;50.780;0.292;2023-02-15T07:21:13;1.60;99.90
4697;DHT22;2362;50.780;0.292;2023-02-15T07:24:04;1.50;99.90
4697;DHT22;2362;50.780;0.292;2023-02-15T07:26:32;1.70;99.90
4697;DHT22;2362;50.780;0.292;2023-02-15T07:28:59;2.10;99.90
4697;DHT22;2362;50.780;0.292;2023-02-15T07:31:24;2.60;99.90
4697;DHT22;2362;50.780;0.292;2023-02-15T07:33:50;3.10;99.90
4697;DHT22;2362;50.780;0.292;2023-02-15T07:36:15;3.50;99.90
4697;DHT22;2362;50.780;0.292;2023-02-15T07:38:41;3.80;99.90
4697;DHT22;2362;50.780;0.292;2023-02-15T07:41:10;4.20;99.90
4697;DHT22;2362;50.780;0.292;2023-02-15T07:43:39;4.40;99.90
4697;DHT22;2362;50.780;0.292;2023-02-15T07:46:07;4.80;99.90
4697;DHT22;2362;50.780;0.292;2023-02-15T07:48:33;5.00;99.90
4697;DHT22;2362;50.780;0.292;2023-02-15T07:51:01;5.20;99.90
4697;DHT22;2362;50.780;0.292;2023-02-15T07:53:27;5.20;99.90
4697;DHT22;2362;50.780;0.292;2023-02-15T07:55:53;5.30;99.90
4697;DHT22;2362;50.780;0.292;2023-02-15T07:58:19;5.40;99.90
4697;DHT22;2362;50.780;0.292;2023-02-15T08:00:45;5.40;99.90
4697;DHT22;2362;50.780;0.292;2023-02-15T08:03:24;5.60;99.90
4697;DHT22;2362;50.780;0.292;2023-02-15T08:05:58;5.50;99.90
4697;DHT22;2362;50.780;0.292;2023-02-15T08:08:25;5.60;99.90
4697;DHT22;2362;50.780;0.292;2023-02-15T08:13:46;5.80;99.90
4697;DHT22;2362;50.780;0.292;2023-02-15T08:16:29;5.80;99.90
4697;DHT22;2362;50.780;0.292;2023-02-15T08:18:57;5.80;99.90
4697;DHT22;2362;50.780;0.292;2023-02-15T08:21:26;5.90;99.90
4697;DHT22;2362;50.780;0.292;2023-02-15T08:23:52;6.00;99.90
4697;DHT22;2362;50.780;0.292;2023-02-15T08:26:18;6.10;99.90
4697;DHT22;2362;50.780;0.292;2023-02-15T08:28:46;6.20;99.90
4697;DHT22;2362;50.780;0.292;2023-02-15T08:31:13;6.20;99.90
4697;DHT22;2362;50.780;0.292;2023-02-15T08:33:40;6.30;99.90
4697;DHT22;2362;50.780;0.292;2023-02-15T08:36:09;6.40;99.90
4697;DHT22;2362;50.780;0.292;2023-02-15T08:38:36;6.50;99.90
4697;DHT22;2362;50.780;0.292;2023-02-15T08:43:40;6.60;99.90
4697;DHT22;2362;50.780;0.292;2023-02-15T08:46:06;6.70;99.90
4697;DHT22;2362;50.780;0.292;2023-02-15T08:48:32;6.60;99.90
4697;DHT22;2362;50.780;0.292;2023-02-15T08:50:58;6.60;99.90
4697;DHT22;2362;50.780;0.292;2023-02-15T08:53:24;6.60;99.90
4697;DHT22;2362;50.780;0.292;2023-02-15T08:55:56;6.70;99.90
4697;DHT22;2362;50.780;0.292;2023-02-15T08:58:22;6.70;99.90
4697;DHT22;2362;50.780;0.292;2023-02-15T09:00:48;6.80;99.90
4697;DHT22;2362;50.780;0.292;2023-02-15T09:03:14;6.80;99.90
4697;DHT22;2362;50.780;0.292;2023-02-15T09:05:39;6.90;99.90
4697;DHT22;2362;50.780;0.292;2023-02-15T09:08:05;7.10;99.90
4697;DHT22;2362;50.780;0.292;2023-02-15T09:10:30;7.20;99.90
4697;DHT22;2362;50.780;0.292;2023-02-15T09:12:56;7.20;99.90
4697;DHT22;2362;50.780;0.292;2023-02-15T09:15:22;7.20;99.90
4697;DHT22;2362;50.780;0.292;2023-02-15T09:17:47;7.30;99.90
4697;DHT22;2362;50.780;0.292;2023-02-15T09:20:13;7.30;99.90
4697;DHT22;2362;50.780;0.292;2023-02-15T09:22:38;7.30;99.90
4697;DHT22;2362;50.780;0.292;2023-02-15T09:25:04;7.30;99.90
4697;DHT22;2362;50.780;0.292;2023-02-15T09:27:30;7.20;99.90
4697;DHT22;2362;50.780;0.292;2023-02-15T09:29:56;7.20;99.90
4697;DHT22;2362;50.780;0.292;2023-02-15T09:32:21;7.30;99.90
4697;DHT22;2362;50.780;0.292;2023-02-15T09:34:47;7.30;99.90
4697;DHT22;2362;50.780;0.292;2023-02-15T09:37:13;7.30;99.90
4697;DHT22;2362;50.780;0.292;2023-02-15T09:39:41;7.40;99.90
4697;DHT22;2362;50.780;0.292;2023-02-15T09:45:20;7.70;99.90
4697;DHT22;2362;50.780;0.292;2023-02-15T09:48:04;7.70;99.90
4697;DHT22;2362;50.780;0.292;2023-02-15T09:50:52;7.80;99.90
4697;DHT22;2362;50.780;0.292;2023-02-15T09:58:55;7.80;99.90
4697;DHT22;2362;50.780;0.292;2023-02-15T10:01:32;7.90;99.90
4697;DHT22;2362;50.780;0.292;2023-02-15T10:04:24;8.00;99.90
4697;DHT22;2362;50.780;0.292;2023-02-15T10:26:49;8.30;99.90
4697;DHT22;2362;50.780;0.292;2023-02-15T10:29:37;8.30;99.90
4697;DHT22;2362;50.780;0.292;2023-02-15T10:34:49;8.50;99.90
4697;DHT22;2362;50.780;0.292;2023-02-15T10:51:00;8.60;99.90
4697;DHT22;2362;50.780;0.292;2023-02-15T10:53:44;8.70;99.90
4697;DHT22;2362;50.780;0.292;2023-02-15T10:56:21;8.70;99.90
4697;DHT22;2362;50.780;0.292;2023-02-15T11:04:51;9.00;99.90
4697;DHT22;2362;50.780;0.292;2023-02-15T11:07:38;9.00;99.90
4697;DHT22;2362;50.780;0.292;2023-02-15T11:10:27;9.10;99.90
4697;DHT22;2362;50.780;0.292;2023-02-15T11:12:56;9.10;99.90
4697;DHT22;2362;50.780;0.292;2023-02-15T11:15:39;9.20;99.90
4697;DHT22;2362;50.780;0.292;2023-02-15T11:23:29;9.30;99.90
4697;DHT22;2362;50.780;0.292;2023-02-15T11:25:58;9.40;99.90
4697;DHT22;2362;50.780;0.292;2023-02-15T11:28:36;9.50;99.90
4697;DHT22;2362;50.780;0.292;2023-02-15T11:31:18;9.50;99.90
4697;DHT22;2362;50.780;0.292;2023-02-15T11:33:52;9.60;99.90
4697;DHT22;2362;50.780;0.292;2023-02-15T11:36:25;9.70;99.90
4697;DHT22;2362;50.780;0.292;2023-02-15T11:39:07;9.70;99.90
4697;DHT22;2362;50.780;0.292;2023-02-15T11:41:37;9.80;99.90
4697;DHT22;2362;50.780;0.292;2023-02-15T11:44:21;9.90;99.90
4697;DHT22;2362;50.780;0.292;2023-02-15T11:46:48;9.90;99.90
4697;DHT22;2362;50.780;0.292;2023-02-15T11:49:34;9.90;99.90
4697;DHT22;2362;50.780;0.292;2023-02-15T11:52:02;9.90;99.90
4697;DHT22;2362;50.780;0.292;2023-02-15T11:54:32;10.00;99.90
4697;DHT22;2362;50.780;0.292;2023-02-15T12:00:14;10.10;99.90
4697;DHT22;2362;50.780;0.292;2023-02-15T12:02:46;10.10;99.90
4697;DHT22;2362;50.780;0.292;2023-02-15T12:05:16;10.10;99.90
4697;DHT22;2362;50.780;0.292;2023-02-15T12:07:48;10.20;99.90
4697;DHT22;2362;50.780;0.292;2023-02-15T12:10:23;10.20;99.90
4697;DHT22;2362;50.780;0.292;2023-02-15T12:15:37;10.20;99.90
4697;DHT22;2362;50.780;0.292;2023-02-15T12:18:03;10.30;99.90
4697;DHT22;2362;50.780;0.292;2023-02-15T12:20:33;10.20;99.90
4697;DHT22;2362;50.780;0.292;2023-02-15T12:23:05;10.20;99.90
4697;DHT22;2362;50.780;0.292;2023-02-15T12:25:51;10.30;99.90
4697;DHT22;2362;50.780;0.292;2023-02-15T12:28:36;10.30;99.90
4697;DHT22;2362;50.780;0.292;2023-02-15T12:31:09;10.30;99.90
4697;DHT22;2362;50.780;0.292;2023-02-15T12:33:43;10.40;99.90
4697;DHT22;2362;50.780;0.292;2023-02-15T12:36:42;10.40;99.90
4697;DHT22;2362;50.780;0.292;2023-02-15T12:41:44;10.40;99.90
4697;DHT22;2362;50.780;0.292;2023-02-15T12:44:24;10.40;99.90
4697;DHT22;2362;50.780;0.292;2023-02-15T12:47:18;10.40;99.90
4697;DHT22;2362;50.780;0.292;2023-02-15T12:49:45;10.40;99.90
4697;DHT22;2362;50.780;0.292;2023-02-15T12:52:28;10.40;99.90
4697;DHT22;2362;50.780;0.292;2023-02-15T12:54:54;10.50;99.90
4697;DHT22;2362;50.780;0.292;2023-02-15T12:57:27;10.50;99.90
4697;DHT22;2362;50.780;0.292;2023-02-15T13:00:05;10.50;99.90
4697;DHT22;2362;50.780;0.292;2023-02-15T13:02:43;10.50;99.90
4697;DHT22;2362;50.780;0.292;2023-02-15T13:07:44;10.40;99.90
4697;DHT22;2362;50.780;0.292;2023-02-15T13:12:51;10.40;99.90
4697;DHT22;2362;50.780;0.292;2023-02-15T13:15:34;10.40;99.90
4697;DHT22;2362;50.780;0.292;2023-02-15T13:18:01;10.40;99.90
4697;DHT22;2362;50.780;0.292;2023-02-15T13:20:27;10.40;99.90
4697;DHT22;2362;50.780;0.292;2023-02-15T13:23:03;10.40;99.90
4697;DHT22;2362;50.780;0.292;2023-02-15T13:25:35;10.40;99.90
4697;DHT22;2362;50.780;0.292;2023-02-15T13:28:07;10.40;99.90
4697;DHT22;2362;50.780;0.292;2023-02-15T13:30:38;10.50;99.90
4697;DHT22;2362;50.780;0.292;2023-02-15T13:33:28;10.60;99.90
4697;DHT22;2362;50.780;0.292;2023-02-15T13:36:09;10.60;99.90
4697;DHT22;2362;50.780;0.292;2023-02-15T13:39:05;10.60;99.90
4697;DHT22;2362;50.780;0.292;2023-02-15T13:48:08;10.60;99.90
4697;DHT22;2362;50.780;0.292;2023-02-15T13:53:43;10.60;99.90
4697;DHT22;2362;50.780;0.292;2023-02-15T13:56:22;10.60;99.90
4697;DHT22;2362;50.780;0.292;2023-02-15T13:59:46;10.50;99.90
4697;DHT22;2362;50.780;0.292;2023-02-15T14:03:00;10.50;99.90
4697;DHT22;2362;50.780;0.292;2023-02-15T14:13:58;10.40;99.90
4697;DHT22;2362;50.780;0.292;2023-02-15T14:24:39;10.30;99.90
4697;DHT22;2362;50.780;0.292;2023-02-15T14:30:25;10.20;99.90
4697;DHT22;2362;50.780;0.292;2023-02-15T14:32:55;10.20;99.90
4697;DHT22;2362;50.780;0.292;2023-02-15T14:35:27;10.30;99.90
4697;DHT22;2362;50.780;0.292;2023-02-15T14:38:13;10.20;99.90
4697;DHT22;2362;50.780;0.292;2023-02-15T14:49:21;10.20;99.90
4697;DHT22;2362;50.780;0.292;2023-02-15T14:56:41;10.30;99.90
4697;DHT22;2362;50.780;0.292;2023-02-15T14:59:20;10.30;99.90
4697;DHT22;2362;50.780;0.292;2023-02-15T15:04:31;10.20;99.90
4697;DHT22;2362;50.780;0.292;2023-02-15T15:07:07;10.20;99.90
4697;DHT22;2362;50.780;0.292;2023-02-15T15:09:37;10.20;99.90
4697;DHT22;2362;50.780;0.292;2023-02-15T15:14:50;10.20;99.90
4697;DHT22;2362;50.780;0.292;2023-02-15T15:19:59;10.10;99.90
4697;DHT22;2362;50.780;0.292;2023-02-15T15:22:31;10.10;99.90
4697;DHT22;2362;50.780;0.292;2023-02-15T15:27:54;10.10;99.90
4697;DHT22;2362;50.780;0.292;2023-02-15T15:38:50;10.00;99.90
4697;DHT22;2362;50.780;0.292;2023-02-15T15:49:23;9.90;99.90
4697;DHT22;2362;50.780;0.292;2023-02-15T15:51:49;9.80;99.90
4697;DHT22;2362;50.780;0.292;2023-02-15T15:54:19;9.70;99.90
4697;DHT22;2362;50.780;0.292;2023-02-15T15:56:52;9.70;99.90
4697;DHT22;2362;50.780;0.292;2023-02-15T15:59:25;9.60;99.90
4697;DHT22;2362;50.780;0.292;2023-02-15T16:01:52;9.60;99.90
4697;DHT22;2362;50.780;0.292;2023-02-15T16:04:27;9.60;99.90
4697;DHT22;2362;50.780;0.292;2023-02-15T16:06:55;9.50;99.90
4697;DHT22;2362;50.780;0.292;2023-02-15T16:09:24;9.50;99.90
4697;DHT22;2362;50.780;0.292;2023-02-15T16:12:01;9.50;99.90
4697;DHT22;2362;50.780;0.292;2023-02-15T16:14:32;9.50;99.90
4697;DHT22;2362;50.780;0.292;2023-02-15T16:17:00;9.40;99.90
4697;DHT22;2362;50.780;0.292;2023-02-15T16:19:29;9.50;99.90
4697;DHT22;2362;50.780;0.292;2023-02-15T16:22:24;9.40;99.90
4697;DHT22;2362;50.780;0.292;2023-02-15T16:27:38;9.40;99.90
4697;DHT22;2362;50.780;0.292;2023-02-15T16:33:04;9.20;99.90
4697;DHT22;2362;50.780;0.292;2023-02-15T16:35:30;9.10;99.90
4697;DHT22;2362;50.780;0.292;2023-02-15T16:37:56;9.00;99.90
4697;DHT22;2362;50.780;0.292;2023-02-15T16:42:52;9.00;99.90
4697;DHT22;2362;50.780;0.292;2023-02-15T16:45:22;9.00;99.90
4697;DHT22;2362;50.780;0.292;2023-02-15T16:47:53;8.90;99.90
4697;DHT22;2362;50.780;0.292;2023-02-15T16:50:28;8.90;99.90
4697;DHT22;2362;50.780;0.292;2023-02-15T16:52:56;8.90;99.90
4697;DHT22;2362;50.780;0.292;2023-02-15T16:55:28;8.90;99.90
4697;DHT22;2362;50.780;0.292;2023-02-15T16:58:01;8.80;99.90
4697;DHT22;2362;50.780;0.292;2023-02-15T17:00:31;8.80;99.90
4697;DHT22;2362;50.780;0.292;2023-02-15T17:03:12;8.70;99.90
4697;DHT22;2362;50.780;0.292;2023-02-15T17:05:57;8.70;99.90
4697;DHT22;2362;50.780;0.292;2023-02-15T17:08:31;8.70;99.90
4697;DHT22;2362;50.780;0.292;2023-02-15T17:11:04;8.70;99.90
4697;DHT22;2362;50.780;0.292;2023-02-15T17:13:31;8.80;99.90
4697;DHT22;2362;50.780;0.292;2023-02-15T17:18:46;8.70;99.90
4697;DHT22;2362;50.780;0.292;2023-02-15T17:21:21;8.70;99.90
4697;DHT22;2362;50.780;0.292;2023-02-15T17:23:51;8.70;99.90
4697;DHT22;2362;50.780;0.292;2023-02-15T17:26:24;8.60;99.90
4697;DHT22;2362;50.780;0.292;2023-02-15T17:29:00;8.60;99.90
4697;DHT22;2362;50.780;0.292;2023-02-15T17:31:31;8.50;99.90
4697;DHT22;2362;50.780;0.292;2023-02-15T17:33:59;8.50;99.90
4697;DHT22;2362;50.780;0.292;2023-02-15T17:36:30;8.40;99.90
4697;DHT22;2362;50.780;0.292;2023-02-15T17:41:32;8.40;99.90
4697;DHT22;2362;50.780;0.292;2023-02-15T17:44:01;8.40;99.90
4697;DHT22;2362;50.780;0.292;2023-02-15T17:46:32;8.40;99.90
4697;DHT22;2362;50.780;0.292;2023-02-15T17:49:00;8.30;99.90
4697;DHT22;2362;50.780;0.292;2023-02-15T17:51:26;8.20;99.90
4697;DHT22;2362;50.780;0.292;2023-02-15T17:53:51;8.10;99.90
4697;DHT22;2362;50.780;0.292;2023-02-15T17:56:37;8.10;99.90
4697;DHT22;2362;50.780;0.292;2023-02-15T17:59:04;8.00;99.90
4697;DHT22;2362;50.780;0.292;2023-02-15T18:01:34;7.90;99.90
4697;DHT22;2362;50.780;0.292;2023-02-15T18:04:18;7.90;99.90
4697;DHT22;2362;50.780;0.292;2023-02-15T18:07:02;7.90;99.90
4697;DHT22;2362;50.780;0.292;2023-02-15T18:09:47;7.90;99.90
4697;DHT22;2362;50.780;0.292;2023-02-15T18:12:35;8.00;99.90
4697;DHT22;2362;50.780;0.292;2023-02-15T18:15:05;8.10;99.90
4697;DHT22;2362;50.780;0.292;2023-02-15T18:17:38;8.20;99.90
4697;DHT22;2362;50.780;0.292;2023-02-15T18:20:31;8.20;99.90
4697;DHT22;2362;50.780;0.292;2023-02-15T18:22:58;8.20;99.90
4697;DHT22;2362;50.780;0.292;2023-02-15T18:25:23;8.30;99.90
4697;DHT22;2362;50.780;0.292;2023-02-15T18:27:50;8.40;99.90
4697;DHT22;2362;50.780;0.292;2023-02-15T18:30:19;8.40;99.90
4697;DHT22;2362;50.780;0.292;2023-02-15T18:32:46;8.50;99.90
4697;DHT22;2362;50.780;0.292;2023-02-15T18:35:16;8.40;99.90
4697;DHT22;2362;50.780;0.292;2023-02-15T18:37:43;8.30;99.90
4697;DHT22;2362;50.780;0.292;2023-02-15T18:40:14;8.40;99.90
4697;DHT22;2362;50.780;0.292;2023-02-15T18:42:41;8.40;99.90
4697;DHT22;2362;50.780;0.292;2023-02-15T18:47:40;8.30;99.90
4697;DHT22;2362;50.780;0.292;2023-02-15T18:50:06;8.30;99.90
4697;DHT22;2362;50.780;0.292;2023-02-15T18:52:33;8.30;99.90
4697;DHT22;2362;50.780;0.292;2023-02-15T18:55:03;8.40;99.90
4697;DHT22;2362;50.780;0.292;2023-02-15T18:57:32;8.30;99.90
4697;DHT22;2362;50.780;0.292;2023-02-15T18:59:58;8.40;99.90
4697;DHT22;2362;50.780;0.292;2023-02-15T19:02:24;8.40;99.90
4697;DHT22;2362;50.780;0.292;2023-02-15T19:04:49;8.40;99.90
4697;DHT22;2362;50.780;0.292;2023-02-15T19:07:24;8.30;99.90
4697;DHT22;2362;50.780;0.292;2023-02-15T19:09:59;8.20;99.90
4697;DHT22;2362;50.780;0.292;2023-02-15T19:12:26;8.20;99.90
4697;DHT22;2362;50.780;0.292;2023-02-15T19:14:52;8.20;99.90
4697;DHT22;2362;50.780;0.292;2023-02-15T19:17:22;8.20;99.90
4697;DHT22;2362;50.780;0.292;2023-02-15T19:19:52;8.20;99.90
4697;DHT22;2362;50.780;0.292;2023-02-15T19:22:29;8.20;99.90
4697;DHT22;2362;50.780;0.292;2023-02-15T19:24:57;8.10;99.90
4697;DHT22;2362;50.780;0.292;2023-02-15T19:27:29;8.20;99.90
4697;DHT22;2362;50.780;0.292;2023-02-15T19:30:00;8.30;99.90
4697;DHT22;2362;50.780;0.292;2023-02-15T19:32:27;8.30;99.90
4697;DHT22;2362;50.780;0.292;2023-02-15T19:34:55;8.30;99.90
4697;DHT22;2362;50.780;0.292;2023-02-15T19:37:31;8.40;99.90
4697;DHT22;2362;50.780;0.292;2023-02-15T19:39:57;8.30;99.90
4697;DHT22;2362;50.780;0.292;2023-02-15T19:42:24;8.30;99.90
4697;DHT22;2362;50.780;0.292;2023-02-15T19:44:50;8.30;99.90
4697;DHT22;2362;50.780;0.292;2023-02-15T19:47:16;8.30;99.90